Time;durP1;ratioP1;P1;durP2;ratioP2;P2;SDS_P1;SDS_P2;PMS_P1;PMS_P2;Temp;Humidity;BMP_temperature;BMP_pressure;BME280_temperature;BME280_humidity;BME280_pressure;Samples;Min_cycle;Max_cycle;Signal;HPM_P1;HPM_P2
2023/01/02 00:04:02;;;;;;;10.30;3.23;;;16.10;99.90;;;;;;10416439;28;20094;-27
2023/01/02 00:09:07;;;;;;;6.17;2.37;;;14.80;99.90;;;;;;10407750;28;20132;-26
2023/01/02 00:14:09;;;;;;;11.70;4.10;;;15.00;99.90;;;;;;10399883;28;20077;-25
2023/01/02 00:19:11;;;;;;;6.30;3.67;;;14.50;99.90;;;;;;10396848;28;20478;-25
2023/01/02 00:24:14;;;;;;;6.35;3.10;;;13.60;99.90;;;;;;10410739;28;20096;-26
2023/01/02 00:29:16;;;;;;;16.20;4.47;;;13.80;99.90;;;;;;10415235;28;20566;-26
2023/01/02 00:34:18;;;;;;;12.10;3.40;;;13.10;99.90;;;;;;10404800;28;20723;-26
2023/01/02 00:39:21;;;;;;;11.60;4.28;;;13.70;99.90;;;;;;10410432;28;20990;-31
2023/01/02 00:44:23;;;;;;;12.48;4.63;;;13.30;99.90;;;;;;10401415;28;20557;-27
2023/01/02 00:49:25;;;;;;;4.82;2.05;;;13.30;99.90;;;;;;10415617;28;20450;-26
2023/01/02 00:54:28;;;;;;;12.88;4.65;;;14.20;99.90;;;;;;10410420;28;20111;-29
2023/01/02 00:59:30;;;;;;;5.78;2.58;;;14.00;99.90;;;;;;10410407;28;20045;-26
2023/01/02 01:04:33;;;;;;;10.80;3.10;;;14.80;99.90;;;;;;10412754;28;20057;-28
2023/01/02 01:09:36;;;;;;;9.32;3.33;;;15.20;99.90;;;;;;10408813;28;20146;-26
2023/01/02 01:14:38;;;;;;;9.45;3.30;;;14.50;99.90;;;;;;10399268;28;20092;-26
2023/01/02 01:19:40;;;;;;;16.30;5.28;;;13.80;99.90;;;;;;10407983;28;20075;-25
2023/01/02 01:24:43;;;;;;;5.93;2.50;;;13.80;99.90;;;;;;10412673;28;20528;-25
2023/01/02 01:29:45;;;;;;;6.75;2.13;;;14.60;99.90;;;;;;10402058;28;20528;-25
2023/01/02 01:34:47;;;;;;;6.03;2.57;;;16.10;99.90;;;;;;10401102;28;20049;-24
2023/01/02 01:39:50;;;;;;;8.93;4.10;;;14.10;99.90;;;;;;10394974;28;20058;-26
2023/01/02 01:44:53;;;;;;;6.93;3.00;;;13.10;99.90;;;;;;10398441;28;20081;-25
2023/01/02 01:50:00;;;;;;;15.02;4.80;;;13.20;99.90;;;;;;10395997;28;20087;-25
2023/01/02 01:55:08;;;;;;;9.40;4.25;;;13.30;99.90;;;;;;10404417;28;20128;-25
2023/01/02 02:00:12;;;;;;;5.15;2.40;;;13.70;99.90;;;;;;10399297;28;20125;-25
2023/01/02 02:05:19;;;;;;;7.95;3.67;;;15.20;99.90;;;;;;10384514;28;20153;-25
2023/01/02 02:10:22;;;;;;;13.05;5.03;;;15.50;99.90;;;;;;10394275;28;20045;-25
2023/01/02 02:15:31;;;;;;;9.02;4.38;;;13.50;99.90;;;;;;10395065;28;20494;-25
2023/01/02 02:20:42;;;;;;;9.55;3.75;;;13.80;99.90;;;;;;10401201;28;20047;-27
2023/01/02 02:26:02;;;;;;;11.98;5.03;;;13.90;99.90;;;;;;10384171;28;20081;-26
2023/01/02 02:31:11;;;;;;;13.93;5.50;;;13.30;99.90;;;;;;10398075;28;20410;-30
2023/01/02 02:36:20;;;;;;;12.32;5.75;;;13.50;99.90;;;;;;10400992;28;20081;-26
2023/01/02 02:41:32;;;;;;;7.10;4.35;;;13.20;99.90;;;;;;10407720;28;20065;-25
2023/01/02 02:46:43;;;;;;;8.00;4.07;;;13.60;99.90;;;;;;10402094;28;20627;-26
2023/01/02 02:51:49;;;;;;;14.57;5.85;;;14.00;99.90;;;;;;10390003;28;20092;-25
2023/01/02 02:56:54;;;;;;;8.48;4.70;;;14.00;99.90;;;;;;10419676;28;20156;-25
2023/01/02 03:01:57;;;;;;;10.40;5.10;;;14.50;99.90;;;;;;10401399;28;20049;-25
2023/01/02 03:07:11;;;;;;;10.48;5.13;;;12.90;99.90;;;;;;10391346;28;20044;-25
2023/01/02 03:12:23;;;;;;;15.90;5.38;;;12.60;99.90;;;;;;10412631;28;20041;-26
2023/01/02 03:17:33;;;;;;;14.33;5.43;;;12.70;99.90;;;;;;10414377;28;20493;-26
2023/01/02 03:22:39;;;;;;;14.20;6.35;;;12.60;99.90;;;;;;10398558;28;20141;-27
2023/01/02 03:27:46;;;;;;;13.95;6.28;;;12.30;99.90;;;;;;10408642;28;20088;-31
2023/01/02 03:32:53;;;;;;;12.85;7.03;;;12.70;99.90;;;;;;10396472;28;20104;-26
2023/01/02 03:37:57;;;;;;;11.25;5.15;;;12.40;99.90;;;;;;10399137;28;20053;-26
2023/01/02 03:43:04;;;;;;;10.73;5.85;;;12.60;99.90;;;;;;10411027;28;20136;-25
2023/01/02 03:48:14;;;;;;;12.95;6.30;;;12.40;99.90;;;;;;10398787;28;20490;-26
2023/01/02 03:53:16;;;;;;;14.95;8.77;;;12.30;99.90;;;;;;10409105;28;20057;-26
2023/01/02 03:58:26;;;;;;;8.10;5.13;;;11.90;99.90;;;;;;10401751;28;20123;-26
2023/01/02 04:03:36;;;;;;;7.30;3.38;;;11.70;99.90;;;;;;10419096;28;20057;-26
2023/01/02 04:08:44;;;;;;;7.18;3.83;;;12.00;99.90;;;;;;10405512;28;20049;-27
2023/01/02 04:13:49;;;;;;;6.90;3.88;;;11.00;99.90;;;;;;10410044;28;20077;-25
2023/01/02 04:18:55;;;;;;;3.58;2.63;;;11.80;99.90;;;;;;10401921;28;20128;-25
2023/01/02 04:24:02;;;;;;;5.70;2.13;;;11.90;99.90;;;;;;10397981;28;20498;-25
2023/01/02 04:29:04;;;;;;;3.03;1.70;;;11.90;99.90;;;;;;10412743;28;20048;-25
2023/01/02 04:34:12;;;;;;;2.10;1.43;;;12.80;99.90;;;;;;10414009;28;20138;-26
2023/01/02 04:39:14;;;;;;;2.03;1.50;;;11.60;99.90;;;;;;10396597;28;20135;-25
2023/01/02 04:44:15;;;;;;;3.20;2.13;;;13.80;99.90;;;;;;10387314;28;20045;-25
2023/01/02 04:49:19;;;;;;;7.32;3.60;;;11.80;99.90;;;;;;10410631;28;20091;-26
2023/01/02 04:54:21;;;;;;;6.53;2.50;;;10.70;99.90;;;;;;10402386;28;20064;-25
2023/01/02 04:59:23;;;;;;;4.45;2.38;;;11.90;99.90;;;;;;10396002;28;20077;-26
2023/01/02 05:04:26;;;;;;;2.40;1.73;;;11.20;99.90;;;;;;10403536;28;20544;-25
2023/01/02 05:09:28;;;;;;;4.88;2.40;;;11.70;99.90;;;;;;10400563;28;20539;-26
2023/01/02 05:14:30;;;;;;;2.47;1.80;;;11.50;99.90;;;;;;10406874;28;20128;-25
2023/01/02 05:19:33;;;;;;;3.72;2.08;;;11.60;99.90;;;;;;10395981;28;20076;-25
2023/01/02 05:24:35;;;;;;;3.40;1.60;;;11.10;99.90;;;;;;10393317;28;20088;-25
2023/01/02 05:29:37;;;;;;;11.15;2.67;;;11.30;99.90;;;;;;10384453;28;20049;-26
2023/01/02 05:34:40;;;;;;;7.30;0.95;;;12.30;99.90;;;;;;10379803;28;20085;-27
2023/01/02 05:39:42;;;;;;;3.72;0.80;;;11.50;99.90;;;;;;10375915;28;20108;-24
2023/01/02 05:44:43;;;;;;;4.38;0.90;;;12.00;99.90;;;;;;10383854;28;20053;-26
2023/01/02 05:49:47;;;;;;;3.22;0.70;;;11.70;99.90;;;;;;10383325;28;20066;-25
2023/01/02 05:54:48;;;;;;;4.35;0.80;;;11.20;99.90;;;;;;10391769;28;20099;-27
2023/01/02 05:59:50;;;;;;;4.82;1.00;;;11.80;99.90;;;;;;10400492;28;20072;-26
2023/01/02 06:04:53;;;;;;;3.83;0.67;;;12.10;99.90;;;;;;10406045;28;20081;-25
2023/01/02 06:09:55;;;;;;;1.45;0.80;;;13.30;99.90;;;;;;10373366;28;20045;-27
2023/01/02 06:14:57;;;;;;;3.03;1.10;;;14.00;99.90;;;;;;10398194;28;20050;-25
2023/01/02 06:20:00;;;;;;;4.88;0.88;;;13.40;99.90;;;;;;10391853;28;20127;-25
2023/01/02 06:25:02;;;;;;;5.55;1.42;;;14.00;99.90;;;;;;10390998;28;20085;-24
2023/01/02 06:30:05;;;;;;;8.90;1.85;;;12.70;99.90;;;;;;10400901;28;20155;-28
2023/01/02 06:35:08;;;;;;;2.90;1.23;;;11.90;99.90;;;;;;10396991;28;20045;-26
2023/01/02 06:40:10;;;;;;;3.30;1.00;;;13.10;99.90;;;;;;10395528;28;20172;-25
2023/01/02 06:45:12;;;;;;;3.97;1.10;;;13.10;99.90;;;;;;10425034;28;20048;-25
2023/01/02 06:50:16;;;;;;;5.22;0.93;;;13.20;99.90;;;;;;10411565;28;20453;-25
2023/01/02 06:55:17;;;;;;;2.45;0.82;;;12.40;99.90;;;;;;10407212;28;20057;-28
2023/01/02 07:00:20;;;;;;;4.57;1.30;;;11.90;99.90;;;;;;10401383;28;20045;-27
2023/01/02 07:15:27;;;;;;;3.45;1.00;;;10.20;99.90;;;;;;10520379;27;1557472;-24
2023/01/02 07:20:29;;;;;;;4.55;1.15;;;10.10;99.90;;;;;;10556204;28;20078;-25
2023/01/02 07:25:31;;;;;;;3.58;0.70;;;9.70;99.90;;;;;;10552075;28;20507;-28
2023/01/02 07:30:35;;;;;;;2.30;0.77;;;10.20;99.90;;;;;;10563743;28;20048;-34
2023/01/02 07:35:37;;;;;;;7.35;1.10;;;11.00;99.90;;;;;;10546177;28;20080;-26
2023/01/02 07:40:39;;;;;;;5.13;0.95;;;10.10;99.90;;;;;;10559412;28;20044;-25
2023/01/02 07:45:43;;;;;;;9.27;1.00;;;11.40;99.90;;;;;;10555508;28;20147;-27
2023/01/02 07:50:45;;;;;;;4.72;0.60;;;10.10;99.90;;;;;;10545226;28;20072;-26
2023/01/02 07:55:53;;;;;;;3.45;0.77;;;9.90;99.90;;;;;;10544768;28;20086;-26
2023/01/02 08:00:58;;;;;;;4.63;1.40;;;10.10;99.90;;;;;;10542384;28;20335;-25
2023/01/02 08:06:03;;;;;;;4.53;0.80;;;10.20;99.90;;;;;;10547594;28;20040;-25
2023/01/02 08:11:06;;;;;;;6.72;0.90;;;10.10;99.90;;;;;;10542335;28;20047;-26
2023/01/02 08:16:11;;;;;;;7.82;1.45;;;9.90;99.90;;;;;;10546510;28;20089;-26
2023/01/02 08:21:14;;;;;;;7.82;1.35;;;10.70;99.90;;;;;;10555810;28;20048;-25
2023/01/02 08:26:16;;;;;;;5.45;0.82;;;11.30;99.90;;;;;;10517987;28;20142;-26
2023/01/02 08:31:21;;;;;;;6.30;0.77;;;11.00;99.90;;;;;;10517933;28;20045;-25
2023/01/02 08:36:23;;;;;;;5.65;1.02;;;12.40;99.90;;;;;;10523206;28;20089;-25
2023/01/02 08:41:32;;;;;;;4.97;1.20;;;11.60;99.90;;;;;;10527173;28;20056;-25
2023/01/02 08:46:36;;;;;;;6.85;1.30;;;11.30;99.90;;;;;;10516901;28;20052;-25
2023/01/02 08:51:38;;;;;;;5.65;0.98;;;11.50;99.90;;;;;;10518680;28;20073;-25
2023/01/02 08:56:41;;;;;;;8.13;1.23;;;11.50;99.90;;;;;;10516084;28;20090;-25
2023/01/02 09:01:44;;;;;;;11.77;1.23;;;11.40;99.90;;;;;;10522463;28;20050;-26
2023/01/02 09:06:47;;;;;;;6.93;1.35;;;12.70;99.90;;;;;;10513208;28;20044;-25
2023/01/02 09:11:51;;;;;;;6.80;0.73;;;10.80;99.90;;;;;;10500918;28;20092;-28
2023/01/02 09:16:56;;;;;;;2.53;0.80;;;12.80;99.90;;;;;;10519956;28;20080;-30
2023/01/02 09:22:00;;;;;;;1.38;0.70;;;12.70;99.90;;;;;;10520539;28;20044;-25
2023/01/02 09:27:02;;;;;;;11.07;0.90;;;11.00;99.90;;;;;;10525415;28;20209;-26
2023/01/02 09:32:05;;;;;;;2.30;0.80;;;12.50;99.90;;;;;;10522394;28;20390;-28
2023/01/02 09:37:07;;;;;;;2.97;0.70;;;11.30;99.90;;;;;;10516636;28;20079;-25
2023/01/02 09:42:14;;;;;;;7.40;1.10;;;12.20;99.90;;;;;;10519828;28;20095;-28
2023/01/02 09:47:20;;;;;;;5.80;1.55;;;12.80;99.90;;;;;;10524849;28;20072;-25
2023/01/02 09:52:25;;;;;;;7.47;1.33;;;11.20;99.90;;;;;;10508482;28;20044;-27
2023/01/02 09:57:42;;;;;;;4.43;0.95;;;11.20;99.90;;;;;;10513796;28;20071;-25
2023/01/02 10:02:56;;;;;;;13.30;1.33;;;11.70;99.90;;;;;;10522784;28;20052;-25
2023/01/02 10:08:08;;;;;;;5.40;0.82;;;10.80;99.90;;;;;;10515017;28;20575;-25
2023/01/02 10:13:17;;;;;;;5.63;1.10;;;11.00;99.90;;;;;;10523120;28;20532;-26
2023/01/02 10:18:26;;;;;;;6.15;1.20;;;10.30;99.90;;;;;;10506994;28;20052;-26
2023/01/02 10:23:33;;;;;;;4.93;1.20;;;11.30;99.90;;;;;;10506867;28;20485;-27
2023/01/02 10:28:44;;;;;;;17.77;1.55;;;11.50;99.90;;;;;;10516549;28;20051;-25
2023/01/02 10:33:52;;;;;;;9.13;1.20;;;12.10;99.90;;;;;;10517122;28;20489;-24
2023/01/02 10:38:58;;;;;;;5.60;1.23;;;11.40;99.90;;;;;;10524304;28;20044;-26
2023/01/02 10:44:02;;;;;;;12.63;1.48;;;11.30;99.90;;;;;;10511143;28;20131;-25
2023/01/02 10:49:10;;;;;;;4.85;1.65;;;11.80;99.90;;;;;;10507721;28;20544;-25
2023/01/02 10:54:12;;;;;;;10.27;1.38;;;12.40;99.90;;;;;;10510630;28;20498;-26
2023/01/02 10:59:23;;;;;;;9.13;1.58;;;11.30;99.90;;;;;;10515352;28;20078;-26
2023/01/02 11:04:28;;;;;;;8.05;1.58;;;11.20;99.90;;;;;;10524646;28;20060;-28
2023/01/02 11:09:31;;;;;;;5.18;1.17;;;11.80;99.90;;;;;;10517410;28;20059;-25
2023/01/02 11:14:35;;;;;;;6.45;1.20;;;11.70;99.90;;;;;;10517994;28;20057;-26
2023/01/02 11:19:43;;;;;;;9.13;1.67;;;11.60;99.90;;;;;;10507416;28;20082;-26
2023/01/02 11:24:53;;;;;;;12.43;1.45;;;11.90;99.90;;;;;;10512180;28;20139;-26
2023/01/02 11:29:55;;;;;;;9.98;1.58;;;12.80;99.90;;;;;;10523133;28;20134;-28
2023/01/02 11:35:01;;;;;;;6.20;1.35;;;12.00;99.90;;;;;;10518266;28;20055;-26
2023/01/02 11:40:06;;;;;;;12.70;2.03;;;12.60;99.90;;;;;;10501294;28;20044;-26
2023/01/02 11:45:09;;;;;;;7.57;1.45;;;13.30;99.90;;;;;;10507305;28;20101;-27
2023/01/02 11:50:16;;;;;;;3.90;0.93;;;15.10;99.90;;;;;;10503487;28;20566;-26
2023/01/02 11:55:31;;;;;;;8.82;1.50;;;13.40;99.90;;;;;;10510632;28;20080;-24
2023/01/02 12:00:38;;;;;;;13.00;1.40;;;10.40;99.90;;;;;;10512055;28;20731;-25
2023/01/02 12:05:57;;;;;;;7.78;1.75;;;10.20;99.90;;;;;;10523632;28;20044;-25
2023/01/02 12:11:07;;;;;;;14.95;2.67;;;10.30;99.90;;;;;;10517284;28;20044;-26
2023/01/02 12:16:32;;;;;;;32.58;13.07;;;10.20;99.90;;;;;;10520925;28;20089;-27
2023/01/02 12:21:48;;;;;;;10.18;3.15;;;10.30;99.90;;;;;;10516433;28;20067;-26
2023/01/02 12:26:59;;;;;;;5.60;1.83;;;10.10;99.90;;;;;;10509282;28;20043;-25
2023/01/02 12:32:28;;;;;;;14.30;2.70;;;12.40;99.90;;;;;;10523133;28;20082;-26
2023/01/02 12:37:41;;;;;;;11.00;2.00;;;12.30;99.90;;;;;;10521258;28;20053;-26
2023/01/02 12:42:57;;;;;;;13.48;3.08;;;11.10;99.90;;;;;;10518771;28;20052;-26
2023/01/02 12:48:15;;;;;;;18.02;2.10;;;12.00;99.90;;;;;;10522757;28;20131;-25
2023/01/02 12:53:33;;;;;;;2.92;1.02;;;10.30;99.90;;;;;;10518476;28;20135;-28
2023/01/02 12:58:53;;;;;;;20.08;2.35;;;11.50;99.90;;;;;;10521563;28;20075;-25
2023/01/02 13:04:05;;;;;;;18.60;3.25;;;10.30;99.90;;;;;;10509345;28;20074;-25
2023/01/02 13:09:11;;;;;;;11.53;1.90;;;10.30;99.90;;;;;;10511024;28;20123;-25
2023/01/02 13:14:18;;;;;;;6.65;1.20;;;10.30;99.90;;;;;;10528430;28;20052;-26
2023/01/02 13:19:30;;;;;;;2.50;1.10;;;12.10;99.90;;;;;;10529654;28;20507;-24
2023/01/02 13:24:33;;;;;;;11.45;2.47;;;13.20;99.90;;;;;;10510311;28;20085;-24
2023/01/02 13:29:42;;;;;;;8.88;1.50;;;12.80;99.90;;;;;;10504235;28;20072;-25
2023/01/02 13:34:50;;;;;;;7.60;1.85;;;12.10;99.90;;;;;;10514423;28;20084;-26
2023/01/02 13:39:55;;;;;;;12.48;2.13;;;12.10;99.90;;;;;;10522402;28;20101;-25
2023/01/02 13:45:00;;;;;;;15.52;2.03;;;11.00;99.90;;;;;;10515564;28;20055;-26
2023/01/02 13:50:09;;;;;;;3.00;0.88;;;11.40;99.90;;;;;;10518942;28;20082;-25
2023/01/02 13:55:32;;;;;;;5.68;1.65;;;12.40;99.90;;;;;;10514733;28;20048;-26
2023/01/02 14:00:36;;;;;;;2.95;0.90;;;12.40;99.90;;;;;;10521650;28;20146;-26
2023/01/02 14:05:59;;;;;;;6.18;1.50;;;11.70;99.90;;;;;;10497991;28;20540;-25
2023/01/02 14:11:10;;;;;;;5.88;2.15;;;11.90;99.90;;;;;;10519740;28;20097;-26
2023/01/02 14:16:27;;;;;;;10.90;1.30;;;11.90;99.90;;;;;;10527395;28;20059;-26
2023/01/02 14:21:34;;;;;;;16.35;1.50;;;12.70;99.90;;;;;;10493988;28;20073;-28
2023/01/02 14:26:39;;;;;;;4.38;1.40;;;12.10;99.90;;;;;;10506380;28;20048;-25
2023/01/02 14:31:42;;;;;;;9.13;1.48;;;13.50;99.90;;;;;;10515797;28;20132;-25
2023/01/02 14:36:48;;;;;;;8.70;1.25;;;12.30;99.90;;;;;;10509535;28;20147;-25
2023/01/02 14:47:46;;;;;;;7.45;1.23;;;13.60;99.90;;;;;;10496942;28;20052;-26
2023/01/02 14:52:54;;;;;;;3.38;0.70;;;13.00;99.90;;;;;;10514328;28;20481;-26
2023/01/02 14:57:59;;;;;;;10.23;1.50;;;14.40;99.90;;;;;;10518721;28;20075;-28
2023/01/02 15:03:16;;;;;;;7.38;1.00;;;11.80;99.90;;;;;;10512979;28;20475;-26
2023/01/02 15:08:22;;;;;;;5.90;1.77;;;13.40;99.90;;;;;;10520303;28;20044;-28
2023/01/02 15:13:29;;;;;;;4.50;0.70;;;13.90;99.90;;;;;;10514572;28;20091;-26
2023/01/02 15:18:33;;;;;;;2.60;1.10;;;14.30;99.90;;;;;;10508532;28;20101;-28
2023/01/02 15:23:36;;;;;;;1.75;0.80;;;12.50;99.90;;;;;;10520757;28;20071;-27
2023/01/02 15:28:39;;;;;;;5.30;1.25;;;14.70;99.90;;;;;;10515932;28;20562;-27
2023/01/02 15:33:41;;;;;;;6.95;0.90;;;14.30;99.90;;;;;;10516122;28;20136;-26
2023/01/02 15:38:44;;;;;;;2.47;0.97;;;14.30;99.90;;;;;;10521186;28;20550;-27
2023/01/02 15:49:13;;;;;;;4.07;0.77;;;14.70;99.90;;;;;;10523954;28;20052;-25
2023/01/02 15:54:17;;;;;;;11.18;2.20;;;13.80;99.90;;;;;;10522345;28;20135;-26
2023/01/02 15:59:27;;;;;;;1.50;0.90;;;15.10;97.50;;;;;;10529037;28;20523;-25
2023/01/02 16:04:31;;;;;;;7.93;1.85;;;15.60;99.90;;;;;;10523180;28;20086;-25
2023/01/02 16:09:32;;;;;;;6.82;1.10;;;15.90;99.90;;;;;;10521223;28;20048;-26
2023/01/02 16:14:42;;;;;;;4.60;1.03;;;15.50;99.90;;;;;;10519394;28;20083;-26
2023/01/02 16:19:50;;;;;;;7.53;1.33;;;14.20;93.10;;;;;;10514882;28;20051;-26
2023/01/02 16:25:03;;;;;;;1.75;1.02;;;12.60;99.90;;;;;;10514760;28;20477;-28
2023/01/02 16:30:27;;;;;;;1.55;0.70;;;13.80;99.90;;;;;;10507982;28;20043;-26
2023/01/02 16:35:32;;;;;;;10.20;1.35;;;13.40;99.90;;;;;;10503072;28;20051;-26
2023/01/02 16:40:48;;;;;;;4.00;1.35;;;12.80;99.90;;;;;;10523471;28;20044;-25
2023/01/02 16:45:52;;;;;;;7.20;1.90;;;13.70;99.90;;;;;;10524890;28;20103;-26
2023/01/02 16:50:55;;;;;;;3.35;0.93;;;14.00;99.20;;;;;;10516024;28;20074;-25
2023/01/02 16:55:58;;;;;;;14.90;3.03;;;13.90;99.90;;;;;;10514881;28;20143;-27
2023/01/02 17:01:01;;;;;;;9.80;3.38;;;11.80;99.90;;;;;;10510638;28;20102;-25
2023/01/02 17:06:06;;;;;;;3.75;2.05;;;11.90;99.90;;;;;;10526466;28;20105;-26
2023/01/02 17:11:08;;;;;;;9.05;2.10;;;12.00;99.90;;;;;;10517146;28;20510;-27
2023/01/02 17:16:11;;;;;;;3.67;0.97;;;11.70;99.90;;;;;;10510074;28;20496;-26
2023/01/02 17:21:13;;;;;;;2.78;1.15;;;14.30;99.90;;;;;;10507145;28;20097;-26
2023/01/02 17:26:15;;;;;;;3.10;1.13;;;13.50;99.90;;;;;;10506224;28;20068;-25
2023/01/02 17:31:18;;;;;;;5.50;1.57;;;14.90;99.90;;;;;;10497152;28;20153;-24
2023/01/02 17:36:20;;;;;;;4.68;1.20;;;16.30;99.70;;;;;;10506515;28;20113;-26
2023/01/02 17:41:22;;;;;;;5.13;1.67;;;17.10;95.70;;;;;;10515676;28;20660;-24
2023/01/02 17:46:25;;;;;;;8.47;3.03;;;17.10;95.20;;;;;;10507673;28;20067;-24
2023/01/02 17:51:27;;;;;;;12.15;3.25;;;17.20;94.60;;;;;;10491631;28;20560;-25
2023/01/02 17:56:30;;;;;;;8.37;2.10;;;14.80;91.30;;;;;;10508987;28;20109;-27
2023/01/02 18:01:33;;;;;;;4.55;1.98;;;12.90;99.90;;;;;;10507990;28;20158;-25
2023/01/02 18:06:35;;;;;;;4.70;1.40;;;12.60;99.90;;;;;;10503210;28;20040;-24
2023/01/02 18:11:37;;;;;;;6.68;1.50;;;12.70;99.90;;;;;;10518078;28;20101;-27
2023/01/02 18:16:41;;;;;;;6.35;2.22;;;14.00;99.90;;;;;;10517933;28;21440;-29
2023/01/02 18:21:44;;;;;;;3.72;1.65;;;12.50;94.80;;;;;;10512334;28;20044;-28
2023/01/02 18:26:46;;;;;;;5.72;1.83;;;11.90;99.90;;;;;;10517921;28;20102;-27
2023/01/02 18:31:50;;;;;;;5.90;2.07;;;13.80;99.90;;;;;;10514998;28;20139;-26
2023/01/02 18:36:52;;;;;;;4.45;2.38;;;11.40;99.90;;;;;;10512452;28;20143;-29
2023/01/02 18:41:58;;;;;;;8.57;2.83;;;9.40;99.90;;;;;;10522176;28;20109;-26
2023/01/02 18:47:14;;;;;;;7.45;2.55;;;9.30;99.90;;;;;;10514607;28;20521;-26
2023/01/02 18:52:24;;;;;;;4.45;2.30;;;10.80;99.90;;;;;;10520194;28;20040;-25
2023/01/02 18:57:31;;;;;;;9.10;2.97;;;11.10;99.90;;;;;;10520027;28;20572;-25
2023/01/02 19:02:38;;;;;;;6.38;2.20;;;12.80;99.90;;;;;;10507930;28;20048;-26
2023/01/02 19:07:40;;;;;;;9.27;2.60;;;13.50;99.90;;;;;;10523315;28;20205;-26
2023/01/02 19:13:03;;;;;;;3.60;1.15;;;12.60;93.50;;;;;;10509114;28;20063;-25
2023/01/02 19:18:26;;;;;;;5.47;1.85;;;14.60;99.90;;;;;;10506502;28;20098;-28
2023/01/02 19:23:31;;;;;;;4.85;1.75;;;14.20;99.90;;;;;;10508095;28;20469;-25
2023/01/02 19:28:36;;;;;;;3.97;1.52;;;14.90;99.90;;;;;;10513672;28;20097;-25
2023/01/02 19:33:43;;;;;;;2.17;1.52;;;14.70;99.90;;;;;;10515626;28;20080;-27
2023/01/02 19:38:47;;;;;;;4.97;1.30;;;15.60;99.40;;;;;;10520273;28;20067;-25
2023/01/02 19:43:49;;;;;;;4.47;1.95;;;14.50;99.90;;;;;;10516433;28;20437;-25
2023/01/02 19:48:52;;;;;;;4.97;2.03;;;15.20;98.00;;;;;;10509663;28;20074;-26
2023/01/02 19:53:54;;;;;;;6.35;1.80;;;13.50;99.90;;;;;;10512413;28;20576;-28
2023/01/02 19:58:56;;;;;;;3.75;1.40;;;14.30;99.90;;;;;;10507635;28;20047;-25
2023/01/02 20:03:59;;;;;;;3.47;1.77;;;13.60;99.90;;;;;;10509713;28;20076;-25
2023/01/02 20:09:01;;;;;;;2.70;1.52;;;13.90;98.30;;;;;;10506978;28;20052;-26
2023/01/02 20:14:03;;;;;;;5.38;1.45;;;14.70;99.90;;;;;;10517273;28;20085;-27
2023/01/02 20:19:06;;;;;;;2.92;1.05;;;15.40;70.00;;;;;;10512958;28;20457;-25
2023/01/02 20:24:08;;;;;;;6.10;1.35;;;15.00;99.90;;;;;;10525924;28;20562;-28
2023/01/02 20:29:10;;;;;;;4.53;1.53;;;15.60;99.10;;;;;;10525937;28;20078;-27
2023/01/02 20:34:13;;;;;;;3.53;1.27;;;16.60;94.50;;;;;;10511429;28;20876;-26
2023/01/02 20:39:16;;;;;;;6.78;1.30;;;16.90;92.70;;;;;;10513155;28;20044;-26
2023/01/02 20:44:17;;;;;;;3.13;1.30;;;16.90;92.50;;;;;;10513077;28;20048;-26
2023/01/02 20:49:23;;;;;;;4.87;1.30;;;17.00;91.40;;;;;;10517824;28;20075;-26
2023/01/02 20:54:26;;;;;;;5.63;1.90;;;16.50;94.20;;;;;;10511766;28;20393;-26
2023/01/02 20:59:28;;;;;;;3.47;1.20;;;16.40;95.00;;;;;;10514754;28;20614;-25
2023/01/02 21:04:31;;;;;;;6.27;1.30;;;15.30;99.90;;;;;;10523425;28;20481;-26
2023/01/02 21:09:33;;;;;;;6.32;1.30;;;16.40;95.00;;;;;;10519989;28;20048;-26
2023/01/02 21:14:35;;;;;;;3.67;1.38;;;16.30;94.50;;;;;;10512054;28;20150;-26
2023/01/02 21:19:39;;;;;;;7.13;1.03;;;16.80;92.80;;;;;;10522382;28;20152;-27
2023/01/02 21:24:40;;;;;;;5.70;1.30;;;17.00;91.50;;;;;;10532274;28;20044;-26
2023/01/02 21:29:44;;;;;;;8.83;1.40;;;16.60;93.10;;;;;;10513827;28;20048;-25
2023/01/02 21:34:47;;;;;;;2.45;1.17;;;17.10;90.80;;;;;;10515649;28;20052;-27
2023/01/02 21:39:49;;;;;;;3.35;1.08;;;17.20;90.40;;;;;;10523134;28;20072;-26
2023/01/02 21:44:51;;;;;;;6.27;1.10;;;17.20;90.30;;;;;;10524100;28;20596;-26
2023/01/02 21:49:54;;;;;;;2.30;1.07;;;17.20;90.20;;;;;;10528363;28;20132;-27
2023/01/02 21:54:56;;;;;;;3.45;1.25;;;17.30;90.00;;;;;;10516549;28;20426;-26
2023/01/02 21:59:58;;;;;;;2.50;0.90;;;17.30;90.10;;;;;;10512576;28;20446;-27
2023/01/02 22:05:01;;;;;;;5.82;0.90;;;17.40;88.30;;;;;;10510347;28;20070;-25
2023/01/02 22:10:04;;;;;;;4.90;1.13;;;17.50;86.70;;;;;;10508086;28;20071;-27
2023/01/02 22:15:08;;;;;;;5.20;1.50;;;17.60;86.10;;;;;;10516493;28;20048;-25
2023/01/02 22:20:12;;;;;;;4.15;1.75;;;17.40;88.00;;;;;;10522197;28;20044;-27
2023/01/02 22:25:13;;;;;;;8.30;3.67;;;17.20;89.50;;;;;;10517785;28;20091;-26
2023/01/02 22:30:15;;;;;;;8.40;4.10;;;17.10;89.90;;;;;;10522695;28;20040;-25
2023/01/02 22:35:19;;;;;;;9.05;3.65;;;17.10;90.00;;;;;;10519238;28;20493;-26
2023/01/02 22:40:21;;;;;;;7.47;3.85;;;17.00;89.70;;;;;;10526460;28;20079;-25
2023/01/02 22:45:26;;;;;;;7.03;3.85;;;17.00;89.50;;;;;;10501139;28;20101;-26
2023/01/02 22:50:43;;;;;;;8.93;4.00;;;17.00;89.30;;;;;;10518034;28;20125;-26
2023/01/02 22:55:45;;;;;;;12.07;4.47;;;16.90;89.60;;;;;;10519733;28;20052;-25
2023/01/02 23:00:49;;;;;;;8.13;3.38;;;16.90;89.60;;;;;;10521543;28;20040;-26
2023/01/02 23:05:52;;;;;;;8.55;3.60;;;16.90;89.40;;;;;;10509791;28;20102;-26
2023/01/02 23:10:54;;;;;;;8.80;4.50;;;16.80;88.70;;;;;;10516996;28;20477;-25
2023/01/02 23:21:17;;;;;;;9.50;4.50;;;16.90;88.80;;;;;;10522459;28;20044;-25
2023/01/02 23:26:19;;;;;;;9.30;5.93;;;16.80;88.60;;;;;;10513760;28;20051;-25
2023/01/02 23:31:21;;;;;;;7.55;3.83;;;16.90;87.70;;;;;;10521032;28;20538;-25
2023/01/02 23:36:24;;;;;;;10.00;3.93;;;16.90;87.50;;;;;;10519327;28;20112;-26
2023/01/02 23:41:27;;;;;;;11.10;4.85;;;16.90;87.10;;;;;;10516903;28;20091;-25
2023/01/02 23:46:29;;;;;;;9.10;4.72;;;16.90;86.70;;;;;;10519227;28;20138;-25
2023/01/02 23:51:32;;;;;;;10.53;4.93;;;16.90;86.20;;;;;;10527156;28;20075;-23
2023/01/02 23:56:35;;;;;;;7.50;3.97;;;16.90;86.40;;;;;;10517314;28;20044;-25
